Time,TemperatureF,DewpointF,PressureIn,WindDirection,WindDirectionDegrees,WindSpeedMPH,WindSpeedGustMPH,Humidity,HourlyPrecipIn,Conditions,Clouds,dailyrainin,SolarRadiationWatts/m^2,SoftwareType,DateUTC
2013-01-21 00:00:00,75.3,70.0,30.02,East,89,3.0,6.0,82,0.00,,,0.01,0,weatherlink.com 1.10,2013-01-21 04:00:00,
2013-01-21 00:15:00,75.6,70.0,30.02,East,89,1.0,5.0,83,0.00,,,0.00,0,weatherlink.com 1.10,2013-01-21 04:15:00,
2013-01-21 00:30:00,75.4,70.0,30.02,East,89,0.0,2.0,83,0.00,,,0.00,0,weatherlink.com 1.10,2013-01-21 04:30:00,
2013-01-21 00:45:00,75.3,70.0,30.02,East,89,0.0,2.0,82,0.00,,,0.00,0,weatherlink.com 1.10,2013-01-21 04:45:00,
2013-01-21 01:15:00,74.9,69.0,30.02,East,89,0.0,0.0,82,0.00,,,0.00,0,weatherlink.com 1.10,2013-01-21 05:15:00,
2013-01-21 01:30:00,74.7,69.0,30.01,East,89,0.0,0.0,83,0.00,,,0.00,0,weatherlink.com 1.10,2013-01-21 05:30:00,
2013-01-21 01:45:00,74.6,70.0,29.99,East,89,0.0,1.0,85,0.00,,,0.00,0,weatherlink.com 1.10,2013-01-21 05:45:00,
2013-01-21 02:00:00,74.3,70.0,29.99,East,89,0.0,0.0,85,0.00,,,0.00,0,weatherlink.com 1.10,2013-01-21 06:00:00,
2013-01-21 02:15:00,74.0,70.0,29.98,East,89,0.0,0.0,86,0.00,,,0.00,0,weatherlink.com 1.10,2013-01-21 06:15:00,
2013-01-21 02:30:00,73.7,70.0,29.98,East,89,0.0,0.0,87,0.00,,,0.00,0,weatherlink.com 1.10,2013-01-21 06:30:00,
2013-01-21 02:45:00,73.5,70.0,29.98,East,89,1.0,1.0,87,0.00,,,0.00,0,weatherlink.com 1.10,2013-01-21 06:45:00,
2013-01-21 03:00:00,73.5,70.0,29.97,East,89,0.0,1.0,87,0.00,,,0.00,0,weatherlink.com 1.10,2013-01-21 07:00:00,
2013-01-21 03:15:00,73.5,70.0,29.97,East,89,0.0,1.0,87,0.00,,,0.00,0,weatherlink.com 1.10,2013-01-21 07:15:00,
2013-01-21 03:30:00,73.4,69.0,29.97,East,89,1.0,1.0,87,0.00,,,0.00,0,weatherlink.com 1.10,2013-01-21 07:30:00,
2013-01-21 03:45:00,73.4,69.0,29.96,East,89,0.0,1.0,87,0.00,,,0.00,0,weatherlink.com 1.10,2013-01-21 07:45:00,
2013-01-21 04:00:00,73.3,69.0,29.96,East,89,0.0,1.0,87,0.00,,,0.00,0,weatherlink.com 1.10,2013-01-21 08:00:00,
2013-01-21 04:15:00,73.5,70.0,29.96,East,89,0.0,1.0,88,0.01,,,0.01,0,weatherlink.com 1.10,2013-01-21 08:15:00,
2013-01-21 04:30:00,73.4,70.0,29.97,East,89,1.0,3.0,89,0.01,,,0.01,0,weatherlink.com 1.10,2013-01-21 08:30:00,
2013-01-21 04:45:00,73.1,70.0,29.97,East,89,1.0,1.0,89,0.02,,,0.02,0,weatherlink.com 1.10,2013-01-21 08:45:00,
2013-01-21 05:00:00,73.0,70.0,29.98,East,89,0.0,1.0,90,0.02,,,0.02,0,weatherlink.com 1.10,2013-01-21 09:00:00,
2013-01-21 05:15:00,72.9,70.0,29.98,East,89,0.0,0.0,91,0.01,,,0.02,0,weatherlink.com 1.10,2013-01-21 09:15:00,
2013-01-21 05:30:00,72.8,70.0,29.97,East,89,0.0,0.0,91,0.01,,,0.02,0,weatherlink.com 1.10,2013-01-21 09:30:00,
2013-01-21 05:45:00,72.9,71.0,29.97,East,89,0.0,1.0,92,0.00,,,0.02,0,weatherlink.com 1.10,2013-01-21 09:45:00,
2013-01-21 06:00:00,72.4,70.0,29.97,East,89,0.0,1.0,91,0.00,,,0.02,0,weatherlink.com 1.10,2013-01-21 10:00:00,
2013-01-21 06:15:00,72.2,70.0,29.97,East,89,0.0,1.0,92,0.00,,,0.02,0,weatherlink.com 1.10,2013-01-21 10:15:00,
2013-01-21 06:30:00,71.9,70.0,29.97,East,89,0.0,2.0,92,0.00,,,0.02,0,weatherlink.com 1.10,2013-01-21 10:30:00,
2013-01-21 06:46:00,71.5,69.0,29.98,East,89,0.0,3.0,92,0.00,,,0.02,0,weatherlink.com 1.10,2013-01-21 10:46:00,
2013-01-21 07:01:00,71.2,69.0,29.98,East,89,0.0,2.0,92,0.00,,,0.02,5,weatherlink.com 1.10,2013-01-21 11:01:00,
2013-01-21 07:16:00,70.9,69.0,29.97,East,89,0.0,5.0,92,0.00,,,0.02,26,weatherlink.com 1.10,2013-01-21 11:16:00,
2013-01-21 07:31:00,71.1,69.0,29.97,East,89,1.0,5.0,92,0.00,,,0.02,63,weatherlink.com 1.10,2013-01-21 11:31:00,
2013-01-21 07:46:00,71.6,69.0,29.98,East,89,0.0,5.0,91,0.00,,,0.02,79,weatherlink.com 1.10,2013-01-21 11:46:00,
2013-01-21 08:01:00,71.9,69.0,29.98,East,89,1.0,5.0,91,0.00,,,0.02,40,weatherlink.com 1.10,2013-01-21 12:01:00,
2013-01-21 08:16:00,72.7,70.0,29.99,East,89,2.0,3.0,90,0.00,,,0.02,40,weatherlink.com 1.10,2013-01-21 12:16:00,
2013-01-21 08:31:00,73.9,71.0,29.99,ESE,121,2.0,9.0,89,0.00,,,0.02,44,weatherlink.com 1.10,2013-01-21 12:31:00,
2013-01-21 08:46:00,75.1,71.0,30.00,ESE,123,2.0,7.0,87,0.00,,,0.02,49,weatherlink.com 1.10,2013-01-21 12:46:00,
2013-01-21 09:01:00,76.3,72.0,30.00,East,90,2.0,9.0,85,0.00,,,0.02,374,weatherlink.com 1.10,2013-01-21 13:01:00,
2013-01-21 09:16:00,77.9,72.0,30.01,ESE,116,5.0,9.0,82,0.00,,,0.02,454,weatherlink.com 1.10,2013-01-21 13:16:00,
2013-01-21 09:31:00,79.1,72.0,30.02,NE,46,4.0,7.0,80,0.00,,,0.02,587,weatherlink.com 1.10,2013-01-21 13:31:00,
2013-01-21 09:46:00,79.9,73.0,30.02,ENE,67,4.0,10.0,78,0.00,,,0.02,109,weatherlink.com 1.10,2013-01-21 13:46:00,
2013-01-21 10:01:00,80.5,73.0,30.02,ESE,117,7.0,10.0,77,0.00,,,0.02,636,weatherlink.com 1.10,2013-01-21 14:01:00,
2013-01-21 10:16:00,81.0,72.0,30.02,ENE,60,5.0,9.0,75,0.00,,,0.02,156,weatherlink.com 1.10,2013-01-21 14:16:00,
2013-01-21 10:31:00,79.2,69.0,30.02,NE,50,4.0,15.0,71,0.00,,,0.02,223,weatherlink.com 1.10,2013-01-21 14:31:00,
2013-01-21 10:46:00,81.0,72.0,30.02,NE,55,4.0,8.0,74,0.00,,,0.02,158,weatherlink.com 1.10,2013-01-21 14:46:00,
2013-01-21 11:01:00,82.0,73.0,30.02,ENE,71,8.0,12.0,73,0.00,,,0.02,265,weatherlink.com 1.10,2013-01-21 15:01:00,
2013-01-21 11:16:00,82.0,72.0,30.02,East,89,3.0,15.0,72,0.00,,,0.02,308,weatherlink.com 1.10,2013-01-21 15:16:00,
2013-01-21 11:31:00,81.1,73.0,30.02,ENE,63,5.0,13.0,77,0.00,,,0.02,174,weatherlink.com 1.10,2013-01-21 15:31:00,
2013-01-21 11:46:00,80.5,73.0,30.01,ENE,65,8.0,17.0,77,0.00,,,0.02,355,weatherlink.com 1.10,2013-01-21 15:46:00,
2013-01-21 12:01:00,81.2,73.0,30.01,ENE,68,9.0,14.0,75,0.00,,,0.02,371,weatherlink.com 1.10,2013-01-21 16:01:00,
2013-01-21 12:16:00,81.1,72.0,30.00,ENE,57,2.0,12.0,74,0.00,,,0.02,255,weatherlink.com 1.10,2013-01-21 16:16:00,
2013-01-21 12:31:00,80.8,72.0,30.00,NE,46,7.0,14.0,74,0.00,,,0.02,218,weatherlink.com 1.10,2013-01-21 16:31:00,
2013-01-21 12:46:00,80.7,73.0,29.99,ENE,77,3.0,14.0,76,0.00,,,0.02,271,weatherlink.com 1.10,2013-01-21 16:46:00,
2013-01-21 13:01:00,81.6,72.0,29.99,East,99,7.0,11.0,72,0.00,,,0.02,448,weatherlink.com 1.10,2013-01-21 17:01:00,
2013-01-21 13:16:00,80.6,70.0,29.99,East,84,11.0,15.0,70,0.00,,,0.02,290,weatherlink.com 1.10,2013-01-21 17:16:00,
2013-01-21 13:31:00,80.6,70.0,29.98,East,82,8.0,10.0,70,0.00,,,0.02,413,weatherlink.com 1.10,2013-01-21 17:31:00,
2013-01-21 13:46:00,81.2,68.0,29.97,East,97,3.0,10.0,64,0.00,,,0.02,221,weatherlink.com 1.10,2013-01-21 17:46:00,
2013-01-21 14:01:00,81.8,69.0,29.96,ENE,67,3.0,8.0,66,0.00,,,0.02,329,weatherlink.com 1.10,2013-01-21 18:01:00,
2013-01-21 14:16:00,83.0,71.0,29.96,East,79,8.0,9.0,68,0.00,,,0.02,227,weatherlink.com 1.10,2013-01-21 18:16:00,
2013-01-21 14:31:00,83.6,72.0,29.95,ENE,71,3.0,11.0,69,0.00,,,0.02,675,weatherlink.com 1.10,2013-01-21 18:31:00,
2013-01-21 14:46:00,83.5,73.0,29.94,ENE,76,9.0,12.0,70,0.00,,,0.02,411,weatherlink.com 1.10,2013-01-21 18:46:00,
2013-01-21 15:01:00,81.4,72.0,29.94,ENE,64,5.0,12.0,73,0.00,,,0.02,141,weatherlink.com 1.10,2013-01-21 19:01:00,
2013-01-21 15:17:00,81.5,73.0,29.94,ENE,63,8.0,12.0,74,0.00,,,0.02,218,weatherlink.com 1.10,2013-01-21 19:17:00,
2013-01-21 15:32:00,81.7,73.0,29.93,ENE,63,7.0,12.0,74,0.00,,,0.02,564,weatherlink.com 1.10,2013-01-21 19:32:00,
2013-01-21 15:47:00,81.9,73.0,29.93,ENE,74,9.0,10.0,74,0.00,,,0.02,118,weatherlink.com 1.10,2013-01-21 19:47:00,
2013-01-21 16:02:00,80.7,73.0,29.94,NE,50,8.0,14.0,77,0.00,,,0.02,123,weatherlink.com 1.10,2013-01-21 20:02:00,
2013-01-21 16:17:00,80.8,73.0,29.94,ENE,57,2.0,11.0,77,0.00,,,0.02,404,weatherlink.com 1.10,2013-01-21 20:17:00,
2013-01-21 16:32:00,81.7,73.0,29.94,East,86,10.0,13.0,76,0.00,,,0.02,221,weatherlink.com 1.10,2013-01-21 20:32:00,
2013-01-21 16:47:00,81.6,74.0,29.94,ENE,61,5.0,11.0,77,0.00,,,0.02,135,weatherlink.com 1.10,2013-01-21 20:47:00,
2013-01-21 17:02:00,80.7,73.0,29.95,NE,56,5.0,13.0,77,0.00,,,0.02,70,weatherlink.com 1.10,2013-01-21 21:02:00,
2013-01-21 17:17:00,80.2,72.0,29.95,East,80,6.0,16.0,77,0.00,,,0.02,56,weatherlink.com 1.10,2013-01-21 21:17:00,
2013-01-21 17:32:00,80.1,72.0,29.95,NW,318,0.0,17.0,77,0.00,,,0.02,72,weatherlink.com 1.10,2013-01-21 21:32:00,
2013-01-21 17:47:00,79.8,72.0,29.95,East,85,6.0,14.0,77,0.00,,,0.02,19,weatherlink.com 1.10,2013-01-21 21:47:00,
2013-01-21 18:02:00,79.6,72.0,29.95,East,96,1.0,15.0,78,0.00,,,0.02,11,weatherlink.com 1.10,2013-01-21 22:02:00,
2013-01-21 18:17:00,79.4,72.0,29.96,ENE,74,4.0,11.0,79,0.00,,,0.02,0,weatherlink.com 1.10,2013-01-21 22:17:00,
2013-01-21 18:32:00,79.1,72.0,29.96,East,87,8.0,11.0,79,0.00,,,0.02,0,weatherlink.com 1.10,2013-01-21 22:32:00,
2013-01-21 18:47:00,78.9,72.0,29.97,East,88,2.0,11.0,80,0.00,,,0.02,0,weatherlink.com 1.10,2013-01-21 22:47:00,
2013-01-21 19:02:00,78.5,72.0,29.98,East,80,1.0,10.0,79,0.00,,,0.02,0,weatherlink.com 1.10,2013-01-21 23:02:00,
2013-01-21 19:17:00,78.5,72.0,29.98,East,83,3.0,11.0,80,0.00,,,0.02,0,weatherlink.com 1.10,2013-01-21 23:17:00,
2013-01-21 19:32:00,78.3,71.0,29.99,East,82,6.0,12.0,78,0.00,,,0.02,0,weatherlink.com 1.10,2013-01-21 23:32:00,
2013-01-21 19:47:00,78.2,71.0,29.99,East,96,7.0,13.0,79,0.00,,,0.02,0,weatherlink.com 1.10,2013-01-21 23:47:00,
2013-01-21 20:02:00,77.8,72.0,30.00,SE,132,7.0,7.0,81,0.00,,,0.02,0,weatherlink.com 1.10,2013-01-22 00:02:00,
2013-01-21 20:17:00,77.5,72.0,30.01,East,90,6.0,8.0,82,0.00,,,0.02,0,weatherlink.com 1.10,2013-01-22 00:17:00,
2013-01-21 20:32:00,77.3,71.0,30.01,East,90,5.0,10.0,82,0.00,,,0.02,0,weatherlink.com 1.10,2013-01-22 00:32:00,
2013-01-21 20:47:00,77.3,71.0,30.02,East,82,5.0,8.0,82,0.00,,,0.02,0,weatherlink.com 1.10,2013-01-22 00:47:00,
2013-01-21 21:02:00,77.4,72.0,30.02,ESE,112,3.0,9.0,82,0.00,,,0.02,0,weatherlink.com 1.10,2013-01-22 01:02:00,
2013-01-21 21:17:00,77.3,72.0,30.02,ESE,102,3.0,8.0,83,0.00,,,0.02,0,weatherlink.com 1.10,2013-01-22 01:17:00,
2013-01-21 21:32:00,77.1,72.0,30.02,East,82,3.0,11.0,83,0.00,,,0.02,0,weatherlink.com 1.10,2013-01-22 01:32:00,
2013-01-21 21:47:00,76.9,71.0,30.02,SE,130,4.0,8.0,83,0.00,,,0.02,0,weatherlink.com 1.10,2013-01-22 01:47:00,
2013-01-21 22:02:00,76.9,71.0,30.02,ESE,107,0.0,8.0,83,0.00,,,0.02,0,weatherlink.com 1.10,2013-01-22 02:02:00,
2013-01-21 22:17:00,76.8,71.0,30.02,SE,132,4.0,8.0,83,0.00,,,0.02,0,weatherlink.com 1.10,2013-01-22 02:17:00,
2013-01-21 22:32:00,76.5,71.0,30.02,SE,126,1.0,7.0,84,0.00,,,0.02,0,weatherlink.com 1.10,2013-01-22 02:32:00,
2013-01-21 22:47:00,76.2,71.0,30.03,East,96,1.0,7.0,84,0.00,,,0.02,0,weatherlink.com 1.10,2013-01-22 02:47:00,
2013-01-21 23:02:00,76.1,71.0,30.03,ESE,111,1.0,5.0,83,0.00,,,0.02,0,weatherlink.com 1.10,2013-01-22 03:02:00,
2013-01-21 23:17:00,75.9,70.0,30.02,ESE,111,3.0,4.0,83,0.00,,,0.02,0,weatherlink.com 1.10,2013-01-22 03:17:00,
2013-01-21 23:32:00,75.8,70.0,30.02,East,94,2.0,6.0,83,0.00,,,0.02,0,weatherlink.com 1.10,2013-01-22 03:32:00,
2013-01-21 23:47:00,75.8,70.0,30.01,East,94,2.0,5.0,83,0.00,,,0.02,0,weatherlink.com 1.10,2013-01-22 03:47:00,